sensor_id;sensor_type;location;lat;lon;timestamp;P1;durP1;ratioP1;P2;durP2;ratioP2
68792;SDS011;55778;54.346;10.210;2023-08-06T00:01:37;4.55;;;2.13;;
68792;SDS011;55778;54.346;10.210;2023-08-06T00:04:03;4.55;;;2.05;;
68792;SDS011;55778;54.346;10.210;2023-08-06T00:06:28;4.68;;;2.40;;
68792;SDS011;55778;54.346;10.210;2023-08-06T00:08:53;4.60;;;2.42;;
68792;SDS011;55778;54.346;10.210;2023-08-06T00:11:20;4.35;;;2.20;;
68792;SDS011;55778;54.346;10.210;2023-08-06T00:13:45;4.60;;;2.15;;
68792;SDS011;55778;54.346;10.210;2023-08-06T00:16:11;3.63;;;2.15;;
68792;SDS011;55778;54.346;10.210;2023-08-06T00:18:37;5.93;;;2.20;;
68792;SDS011;55778;54.346;10.210;2023-08-06T00:21:03;4.82;;;1.95;;
68792;SDS011;55778;54.346;10.210;2023-08-06T00:23:28;5.72;;;2.20;;
68792;SDS011;55778;54.346;10.210;2023-08-06T00:25:53;5.25;;;2.20;;
68792;SDS011;55778;54.346;10.210;2023-08-06T00:28:19;4.63;;;2.35;;
68792;SDS011;55778;54.346;10.210;2023-08-06T00:30:44;5.00;;;2.08;;
68792;SDS011;55778;54.346;10.210;2023-08-06T00:33:10;3.55;;;2.20;;
68792;SDS011;55778;54.346;10.210;2023-08-06T00:35:35;4.72;;;1.92;;
68792;SDS011;55778;54.346;10.210;2023-08-06T00:38:00;5.28;;;2.40;;
68792;SDS011;55778;54.346;10.210;2023-08-06T00:40:26;4.15;;;2.53;;
68792;SDS011;55778;54.346;10.210;2023-08-06T00:42:53;5.38;;;2.55;;
68792;SDS011;55778;54.346;10.210;2023-08-06T00:45:19;3.92;;;2.50;;
68792;SDS011;55778;54.346;10.210;2023-08-06T00:47:44;3.30;;;2.28;;
68792;SDS011;55778;54.346;10.210;2023-08-06T00:50:11;5.13;;;2.58;;
68792;SDS011;55778;54.346;10.210;2023-08-06T00:52:36;4.43;;;2.30;;
68792;SDS011;55778;54.346;10.210;2023-08-06T00:55:02;11.55;;;4.70;;
68792;SDS011;55778;54.346;10.210;2023-08-06T00:57:28;13.10;;;2.97;;
68792;SDS011;55778;54.346;10.210;2023-08-06T00:59:53;5.25;;;2.60;;
68792;SDS011;55778;54.346;10.210;2023-08-06T01:02:20;3.92;;;2.30;;
68792;SDS011;55778;54.346;10.210;2023-08-06T01:04:45;4.93;;;2.35;;
68792;SDS011;55778;54.346;10.210;2023-08-06T01:07:18;7.35;;;2.25;;
68792;SDS011;55778;54.346;10.210;2023-08-06T01:13:23;6.07;;;2.70;;
68792;SDS011;55778;54.346;10.210;2023-08-06T01:16:06;4.50;;;2.30;;
68792;SDS011;55778;54.346;10.210;2023-08-06T01:18:33;4.57;;;2.30;;
68792;SDS011;55778;54.346;10.210;2023-08-06T01:20:58;4.13;;;2.20;;
68792;SDS011;55778;54.346;10.210;2023-08-06T01:23:24;4.03;;;2.53;;
68792;SDS011;55778;54.346;10.210;2023-08-06T01:26:07;4.13;;;2.40;;
68792;SDS011;55778;54.346;10.210;2023-08-06T01:31:27;5.20;;;2.55;;
68792;SDS011;55778;54.346;10.210;2023-08-06T01:33:56;5.70;;;2.80;;
68792;SDS011;55778;54.346;10.210;2023-08-06T01:36:24;4.93;;;2.20;;
68792;SDS011;55778;54.346;10.210;2023-08-06T01:38:51;7.32;;;2.60;;
68792;SDS011;55778;54.346;10.210;2023-08-06T01:41:17;6.18;;;2.50;;
68792;SDS011;55778;54.346;10.210;2023-08-06T01:43:43;4.05;;;2.38;;
68792;SDS011;55778;54.346;10.210;2023-08-06T01:46:08;7.40;;;2.65;;
68792;SDS011;55778;54.346;10.210;2023-08-06T01:48:34;6.95;;;3.00;;
68792;SDS011;55778;54.346;10.210;2023-08-06T01:50:59;7.25;;;3.20;;
68792;SDS011;55778;54.346;10.210;2023-08-06T01:53:24;5.10;;;2.63;;
68792;SDS011;55778;54.346;10.210;2023-08-06T01:55:50;5.32;;;2.45;;
68792;SDS011;55778;54.346;10.210;2023-08-06T01:58:15;4.35;;;2.80;;
68792;SDS011;55778;54.346;10.210;2023-08-06T02:00:41;5.53;;;2.67;;
68792;SDS011;55778;54.346;10.210;2023-08-06T02:03:06;5.95;;;2.60;;
68792;SDS011;55778;54.346;10.210;2023-08-06T02:05:32;4.22;;;2.53;;
68792;SDS011;55778;54.346;10.210;2023-08-06T02:07:57;4.22;;;2.60;;
68792;SDS011;55778;54.346;10.210;2023-08-06T02:10:23;5.95;;;2.50;;
68792;SDS011;55778;54.346;10.210;2023-08-06T02:12:48;4.50;;;2.72;;
68792;SDS011;55778;54.346;10.210;2023-08-06T02:15:14;4.72;;;2.65;;
68792;SDS011;55778;54.346;10.210;2023-08-06T02:17:39;5.47;;;2.95;;
68792;SDS011;55778;54.346;10.210;2023-08-06T02:20:04;6.47;;;2.80;;
68792;SDS011;55778;54.346;10.210;2023-08-06T02:22:30;5.25;;;2.78;;
68792;SDS011;55778;54.346;10.210;2023-08-06T02:24:56;4.45;;;2.95;;
68792;SDS011;55778;54.346;10.210;2023-08-06T02:27:21;5.85;;;3.00;;
68792;SDS011;55778;54.346;10.210;2023-08-06T02:29:46;5.05;;;2.70;;
68792;SDS011;55778;54.346;10.210;2023-08-06T02:32:12;5.38;;;3.05;;
68792;SDS011;55778;54.346;10.210;2023-08-06T02:34:37;5.35;;;2.80;;
68792;SDS011;55778;54.346;10.210;2023-08-06T02:37:02;8.48;;;3.08;;
68792;SDS011;55778;54.346;10.210;2023-08-06T02:39:28;5.40;;;3.10;;
68792;SDS011;55778;54.346;10.210;2023-08-06T02:41:53;5.63;;;2.92;;
68792;SDS011;55778;54.346;10.210;2023-08-06T02:44:19;7.93;;;3.05;;
68792;SDS011;55778;54.346;10.210;2023-08-06T02:46:44;5.68;;;3.33;;
68792;SDS011;55778;54.346;10.210;2023-08-06T02:49:10;6.43;;;3.20;;
68792;SDS011;55778;54.346;10.210;2023-08-06T02:51:36;8.95;;;3.35;;
68792;SDS011;55778;54.346;10.210;2023-08-06T02:54:01;6.22;;;3.25;;
68792;SDS011;55778;54.346;10.210;2023-08-06T02:56:26;6.10;;;3.50;;
68792;SDS011;55778;54.346;10.210;2023-08-06T02:58:52;4.30;;;3.15;;
68792;SDS011;55778;54.346;10.210;2023-08-06T03:01:17;6.88;;;3.10;;
68792;SDS011;55778;54.346;10.210;2023-08-06T03:03:42;7.32;;;3.30;;
68792;SDS011;55778;54.346;10.210;2023-08-06T03:06:08;5.82;;;2.90;;
68792;SDS011;55778;54.346;10.210;2023-08-06T03:08:33;5.97;;;3.20;;
68792;SDS011;55778;54.346;10.210;2023-08-06T03:10:59;7.25;;;3.30;;
68792;SDS011;55778;54.346;10.210;2023-08-06T03:13:24;5.57;;;3.03;;
68792;SDS011;55778;54.346;10.210;2023-08-06T03:15:53;4.90;;;2.83;;
68792;SDS011;55778;54.346;10.210;2023-08-06T03:18:22;5.55;;;2.97;;
68792;SDS011;55778;54.346;10.210;2023-08-06T03:20:48;6.55;;;3.72;;
68792;SDS011;55778;54.346;10.210;2023-08-06T03:23:13;5.60;;;2.95;;
68792;SDS011;55778;54.346;10.210;2023-08-06T03:25:39;7.18;;;3.20;;
68792;SDS011;55778;54.346;10.210;2023-08-06T03:28:04;7.45;;;3.40;;
68792;SDS011;55778;54.346;10.210;2023-08-06T03:30:29;7.05;;;3.30;;
68792;SDS011;55778;54.346;10.210;2023-08-06T03:32:55;6.38;;;2.90;;
68792;SDS011;55778;54.346;10.210;2023-08-06T03:35:20;8.18;;;3.33;;
68792;SDS011;55778;54.346;10.210;2023-08-06T03:37:46;5.75;;;3.60;;
68792;SDS011;55778;54.346;10.210;2023-08-06T03:40:11;6.47;;;3.45;;
68792;SDS011;55778;54.346;10.210;2023-08-06T03:42:37;8.05;;;3.85;;
68792;SDS011;55778;54.346;10.210;2023-08-06T03:45:02;6.75;;;3.10;;
68792;SDS011;55778;54.346;10.210;2023-08-06T03:47:28;6.07;;;3.30;;
68792;SDS011;55778;54.346;10.210;2023-08-06T03:49:53;8.30;;;3.38;;
68792;SDS011;55778;54.346;10.210;2023-08-06T03:52:18;6.38;;;3.30;;
68792;SDS011;55778;54.346;10.210;2023-08-06T03:54:44;6.82;;;3.80;;
68792;SDS011;55778;54.346;10.210;2023-08-06T03:57:09;6.40;;;3.00;;
68792;SDS011;55778;54.346;10.210;2023-08-06T03:59:35;5.78;;;3.13;;
68792;SDS011;55778;54.346;10.210;2023-08-06T04:02:00;7.85;;;3.17;;
68792;SDS011;55778;54.346;10.210;2023-08-06T04:04:26;6.40;;;3.25;;
68792;SDS011;55778;54.346;10.210;2023-08-06T04:06:51;5.18;;;3.05;;
68792;SDS011;55778;54.346;10.210;2023-08-06T04:09:16;5.35;;;2.88;;
68792;SDS011;55778;54.346;10.210;2023-08-06T04:11:42;7.20;;;3.22;;
68792;SDS011;55778;54.346;10.210;2023-08-06T04:14:07;6.28;;;3.10;;
68792;SDS011;55778;54.346;10.210;2023-08-06T04:16:32;5.53;;;2.85;;
68792;SDS011;55778;54.346;10.210;2023-08-06T04:18:58;6.13;;;3.00;;
68792;SDS011;55778;54.346;10.210;2023-08-06T04:21:24;8.27;;;3.30;;
68792;SDS011;55778;54.346;10.210;2023-08-06T04:23:49;8.23;;;3.15;;
68792;SDS011;55778;54.346;10.210;2023-08-06T04:26:14;5.72;;;3.17;;
68792;SDS011;55778;54.346;10.210;2023-08-06T04:28:40;5.47;;;3.00;;
68792;SDS011;55778;54.346;10.210;2023-08-06T04:31:05;4.82;;;2.75;;
68792;SDS011;55778;54.346;10.210;2023-08-06T04:33:31;6.38;;;2.75;;
68792;SDS011;55778;54.346;10.210;2023-08-06T04:35:56;8.30;;;3.30;;
68792;SDS011;55778;54.346;10.210;2023-08-06T04:38:24;7.63;;;2.85;;
68792;SDS011;55778;54.346;10.210;2023-08-06T04:40:50;7.75;;;3.45;;
68792;SDS011;55778;54.346;10.210;2023-08-06T04:43:16;4.07;;;2.67;;
68792;SDS011;55778;54.346;10.210;2023-08-06T04:45:51;7.30;;;4.05;;
68792;SDS011;55778;54.346;10.210;2023-08-06T04:48:18;10.70;;;3.60;;
68792;SDS011;55778;54.346;10.210;2023-08-06T04:50:44;10.52;;;4.00;;
68792;SDS011;55778;54.346;10.210;2023-08-06T04:53:11;4.40;;;2.70;;
68792;SDS011;55778;54.346;10.210;2023-08-06T04:55:36;6.97;;;2.72;;
68792;SDS011;55778;54.346;10.210;2023-08-06T04:58:01;8.75;;;5.38;;
68792;SDS011;55778;54.346;10.210;2023-08-06T05:00:27;4.80;;;2.80;;
68792;SDS011;55778;54.346;10.210;2023-08-06T05:02:52;6.20;;;2.80;;
68792;SDS011;55778;54.346;10.210;2023-08-06T05:05:18;7.50;;;3.58;;
68792;SDS011;55778;54.346;10.210;2023-08-06T05:07:45;5.60;;;3.20;;
68792;SDS011;55778;54.346;10.210;2023-08-06T05:10:13;6.63;;;2.80;;
68792;SDS011;55778;54.346;10.210;2023-08-06T05:12:38;10.85;;;2.83;;
68792;SDS011;55778;54.346;10.210;2023-08-06T05:15:04;10.13;;;4.80;;
68792;SDS011;55778;54.346;10.210;2023-08-06T05:17:29;6.25;;;2.50;;
68792;SDS011;55778;54.346;10.210;2023-08-06T05:19:55;3.80;;;2.53;;
68792;SDS011;55778;54.346;10.210;2023-08-06T05:22:20;6.53;;;3.45;;
68792;SDS011;55778;54.346;10.210;2023-08-06T05:24:46;5.50;;;2.42;;
68792;SDS011;55778;54.346;10.210;2023-08-06T05:27:11;5.57;;;2.47;;
68792;SDS011;55778;54.346;10.210;2023-08-06T05:29:36;5.47;;;2.35;;
68792;SDS011;55778;54.346;10.210;2023-08-06T05:32:02;5.72;;;2.63;;
68792;SDS011;55778;54.346;10.210;2023-08-06T05:34:27;4.85;;;2.42;;
68792;SDS011;55778;54.346;10.210;2023-08-06T05:36:52;4.45;;;2.40;;
68792;SDS011;55778;54.346;10.210;2023-08-06T05:39:18;4.72;;;2.50;;
68792;SDS011;55778;54.346;10.210;2023-08-06T05:41:43;5.43;;;2.83;;
68792;SDS011;55778;54.346;10.210;2023-08-06T05:44:09;3.80;;;2.30;;
68792;SDS011;55778;54.346;10.210;2023-08-06T05:46:34;8.48;;;2.92;;
68792;SDS011;55778;54.346;10.210;2023-08-06T05:48:59;6.10;;;2.47;;
68792;SDS011;55778;54.346;10.210;2023-08-06T05:51:26;4.88;;;2.20;;
68792;SDS011;55778;54.346;10.210;2023-08-06T05:53:52;5.57;;;2.45;;
68792;SDS011;55778;54.346;10.210;2023-08-06T05:56:17;5.00;;;2.95;;
68792;SDS011;55778;54.346;10.210;2023-08-06T05:58:43;6.20;;;3.45;;
68792;SDS011;55778;54.346;10.210;2023-08-06T06:01:08;2.70;;;2.08;;
68792;SDS011;55778;54.346;10.210;2023-08-06T06:03:33;3.92;;;2.20;;
68792;SDS011;55778;54.346;10.210;2023-08-06T06:06:00;4.20;;;2.10;;
68792;SDS011;55778;54.346;10.210;2023-08-06T06:08:26;5.88;;;2.33;;
68792;SDS011;55778;54.346;10.210;2023-08-06T06:10:51;5.45;;;2.55;;
68792;SDS011;55778;54.346;10.210;2023-08-06T06:13:17;3.33;;;2.20;;
68792;SDS011;55778;54.346;10.210;2023-08-06T06:15:42;4.35;;;2.13;;
68792;SDS011;55778;54.346;10.210;2023-08-06T06:18:08;4.22;;;2.10;;
68792;SDS011;55778;54.346;10.210;2023-08-06T06:20:33;3.70;;;1.92;;
68792;SDS011;55778;54.346;10.210;2023-08-06T06:22:59;4.28;;;1.90;;
68792;SDS011;55778;54.346;10.210;2023-08-06T06:25:24;5.38;;;1.85;;
68792;SDS011;55778;54.346;10.210;2023-08-06T06:27:49;4.40;;;1.77;;
68792;SDS011;55778;54.346;10.210;2023-08-06T06:30:15;4.70;;;1.80;;
68792;SDS011;55778;54.346;10.210;2023-08-06T06:32:40;2.22;;;1.42;;
68792;SDS011;55778;54.346;10.210;2023-08-06T06:35:06;4.13;;;1.73;;
68792;SDS011;55778;54.346;10.210;2023-08-06T06:37:32;3.85;;;1.92;;
68792;SDS011;55778;54.346;10.210;2023-08-06T06:39:57;3.38;;;2.00;;
68792;SDS011;55778;54.346;10.210;2023-08-06T06:42:22;2.92;;;1.70;;
68792;SDS011;55778;54.346;10.210;2023-08-06T06:44:48;3.30;;;1.70;;
68792;SDS011;55778;54.346;10.210;2023-08-06T06:47:13;5.32;;;2.20;;
68792;SDS011;55778;54.346;10.210;2023-08-06T06:49:39;3.17;;;2.00;;
68792;SDS011;55778;54.346;10.210;2023-08-06T06:52:04;3.25;;;1.83;;
68792;SDS011;55778;54.346;10.210;2023-08-06T06:54:30;5.82;;;1.85;;
68792;SDS011;55778;54.346;10.210;2023-08-06T06:56:55;4.40;;;2.63;;
68792;SDS011;55778;54.346;10.210;2023-08-06T06:59:21;3.90;;;2.40;;
68792;SDS011;55778;54.346;10.210;2023-08-06T07:01:46;5.70;;;1.95;;
68792;SDS011;55778;54.346;10.210;2023-08-06T07:04:11;3.03;;;2.05;;
68792;SDS011;55778;54.346;10.210;2023-08-06T07:06:37;4.78;;;1.58;;
68792;SDS011;55778;54.346;10.210;2023-08-06T07:09:02;3.45;;;1.90;;
68792;SDS011;55778;54.346;10.210;2023-08-06T07:11:28;3.00;;;1.90;;
68792;SDS011;55778;54.346;10.210;2023-08-06T07:13:56;3.25;;;1.63;;
68792;SDS011;55778;54.346;10.210;2023-08-06T07:16:25;2.92;;;1.55;;
68792;SDS011;55778;54.346;10.210;2023-08-06T07:18:51;4.07;;;1.70;;
68792;SDS011;55778;54.346;10.210;2023-08-06T07:21:19;5.15;;;1.70;;
68792;SDS011;55778;54.346;10.210;2023-08-06T07:23:45;2.47;;;1.60;;
68792;SDS011;55778;54.346;10.210;2023-08-06T07:26:10;3.22;;;1.40;;
68792;SDS011;55778;54.346;10.210;2023-08-06T07:28:36;4.90;;;1.95;;
68792;SDS011;55778;54.346;10.210;2023-08-06T07:31:02;2.38;;;1.60;;
68792;SDS011;55778;54.346;10.210;2023-08-06T07:33:28;3.13;;;1.40;;
68792;SDS011;55778;54.346;10.210;2023-08-06T07:35:53;3.40;;;1.38;;
68792;SDS011;55778;54.346;10.210;2023-08-06T07:38:19;4.40;;;1.60;;
68792;SDS011;55778;54.346;10.210;2023-08-06T07:40:44;3.53;;;1.88;;
68792;SDS011;55778;54.346;10.210;2023-08-06T07:43:10;3.05;;;1.55;;
68792;SDS011;55778;54.346;10.210;2023-08-06T07:45:35;2.50;;;1.40;;
68792;SDS011;55778;54.346;10.210;2023-08-06T07:48:02;5.63;;;2.13;;
68792;SDS011;55778;54.346;10.210;2023-08-06T07:50:28;3.38;;;1.30;;
68792;SDS011;55778;54.346;10.210;2023-08-06T07:52:53;2.83;;;1.45;;
68792;SDS011;55778;54.346;10.210;2023-08-06T07:55:19;6.13;;;1.70;;
68792;SDS011;55778;54.346;10.210;2023-08-06T07:57:44;2.50;;;1.50;;
68792;SDS011;55778;54.346;10.210;2023-08-06T08:00:10;3.97;;;1.60;;
68792;SDS011;55778;54.346;10.210;2023-08-06T08:02:35;1.98;;;1.30;;
68792;SDS011;55778;54.346;10.210;2023-08-06T08:05:01;3.03;;;1.60;;
68792;SDS011;55778;54.346;10.210;2023-08-06T08:07:26;3.55;;;1.40;;
68792;SDS011;55778;54.346;10.210;2023-08-06T08:09:54;4.75;;;1.40;;
68792;SDS011;55778;54.346;10.210;2023-08-06T08:12:19;3.60;;;1.58;;
68792;SDS011;55778;54.346;10.210;2023-08-06T08:14:47;4.03;;;1.60;;
68792;SDS011;55778;54.346;10.210;2023-08-06T08:17:13;3.63;;;1.63;;
68792;SDS011;55778;54.346;10.210;2023-08-06T08:19:39;6.63;;;1.52;;
68792;SDS011;55778;54.346;10.210;2023-08-06T08:22:05;4.28;;;1.50;;
68792;SDS011;55778;54.346;10.210;2023-08-06T08:24:31;3.67;;;1.73;;
68792;SDS011;55778;54.346;10.210;2023-08-06T08:26:56;4.72;;;1.60;;
68792;SDS011;55778;54.346;10.210;2023-08-06T08:29:22;2.72;;;1.40;;
68792;SDS011;55778;54.346;10.210;2023-08-06T08:31:48;2.85;;;1.63;;
68792;SDS011;55778;54.346;10.210;2023-08-06T08:34:18;3.05;;;1.40;;
68792;SDS011;55778;54.346;10.210;2023-08-06T08:36:44;3.47;;;1.70;;
68792;SDS011;55778;54.346;10.210;2023-08-06T08:39:12;3.70;;;1.20;;
68792;SDS011;55778;54.346;10.210;2023-08-06T08:41:38;2.80;;;1.60;;
68792;SDS011;55778;54.346;10.210;2023-08-06T08:44:04;2.70;;;1.38;;
68792;SDS011;55778;54.346;10.210;2023-08-06T08:46:34;2.67;;;1.40;;
68792;SDS011;55778;54.346;10.210;2023-08-06T08:49:03;4.40;;;1.75;;
68792;SDS011;55778;54.346;10.210;2023-08-06T08:51:29;3.30;;;1.20;;
68792;SDS011;55778;54.346;10.210;2023-08-06T08:53:55;3.47;;;1.40;;
68792;SDS011;55778;54.346;10.210;2023-08-06T08:56:24;3.58;;;1.58;;
68792;SDS011;55778;54.346;10.210;2023-08-06T08:58:50;4.93;;;1.40;;
68792;SDS011;55778;54.346;10.210;2023-08-06T09:01:20;2.47;;;1.30;;
68792;SDS011;55778;54.346;10.210;2023-08-06T09:03:47;4.10;;;1.20;;
68792;SDS011;55778;54.346;10.210;2023-08-06T09:06:13;3.35;;;1.38;;
68792;SDS011;55778;54.346;10.210;2023-08-06T09:08:41;2.55;;;1.30;;
68792;SDS011;55778;54.346;10.210;2023-08-06T09:11:28;4.43;;;1.48;;
68792;SDS011;55778;54.346;10.210;2023-08-06T09:14:03;2.95;;;1.25;;
68792;SDS011;55778;54.346;10.210;2023-08-06T09:16:29;2.88;;;1.42;;
68792;SDS011;55778;54.346;10.210;2023-08-06T09:18:54;5.78;;;1.60;;
68792;SDS011;55778;54.346;10.210;2023-08-06T09:21:35;4.47;;;1.40;;
68792;SDS011;55778;54.346;10.210;2023-08-06T09:24:06;3.00;;;1.40;;
68792;SDS011;55778;54.346;10.210;2023-08-06T09:26:36;3.55;;;1.40;;
68792;SDS011;55778;54.346;10.210;2023-08-06T09:29:04;4.38;;;1.80;;
68792;SDS011;55778;54.346;10.210;2023-08-06T09:31:49;4.78;;;1.38;;
68792;SDS011;55778;54.346;10.210;2023-08-06T09:34:21;5.13;;;1.45;;
68792;SDS011;55778;54.346;10.210;2023-08-06T09:36:51;1.67;;;1.30;;
68792;SDS011;55778;54.346;10.210;2023-08-06T09:39:24;2.20;;;1.30;;
68792;SDS011;55778;54.346;10.210;2023-08-06T09:41:55;3.67;;;1.50;;
68792;SDS011;55778;54.346;10.210;2023-08-06T09:44:26;3.42;;;1.35;;
68792;SDS011;55778;54.346;10.210;2023-08-06T09:46:54;3.83;;;1.40;;
68792;SDS011;55778;54.346;10.210;2023-08-06T09:49:28;3.45;;;1.50;;
68792;SDS011;55778;54.346;10.210;2023-08-06T09:52:10;3.72;;;1.50;;
68792;SDS011;55778;54.346;10.210;2023-08-06T09:54:40;3.05;;;1.60;;
68792;SDS011;55778;54.346;10.210;2023-08-06T09:57:08;4.63;;;1.50;;
68792;SDS011;55778;54.346;10.210;2023-08-06T09:59:36;1.77;;;1.33;;
68792;SDS011;55778;54.346;10.210;2023-08-06T10:02:05;3.03;;;1.40;;
68792;SDS011;55778;54.346;10.210;2023-08-06T10:04:38;3.35;;;1.40;;
68792;SDS011;55778;54.346;10.210;2023-08-06T10:07:04;3.28;;;1.30;;
68792;SDS011;55778;54.346;10.210;2023-08-06T10:09:29;3.42;;;1.70;;
68792;SDS011;55778;54.346;10.210;2023-08-06T10:11:55;2.88;;;1.60;;
68792;SDS011;55778;54.346;10.210;2023-08-06T10:14:24;3.13;;;1.52;;
68792;SDS011;55778;54.346;10.210;2023-08-06T10:16:53;3.80;;;1.50;;
68792;SDS011;55778;54.346;10.210;2023-08-06T10:19:21;3.20;;;1.60;;
68792;SDS011;55778;54.346;10.210;2023-08-06T10:25:08;2.20;;;1.40;;
68792;SDS011;55778;54.346;10.210;2023-08-06T10:30:23;3.45;;;1.50;;
68792;SDS011;55778;54.346;10.210;2023-08-06T10:32:54;2.80;;;1.50;;
68792;SDS011;55778;54.346;10.210;2023-08-06T10:35:43;3.53;;;1.60;;
68792;SDS011;55778;54.346;10.210;2023-08-06T10:38:16;2.97;;;1.63;;
68792;SDS011;55778;54.346;10.210;2023-08-06T10:41:04;1.90;;;1.40;;
68792;SDS011;55778;54.346;10.210;2023-08-06T10:43:32;2.85;;;1.70;;
68792;SDS011;55778;54.346;10.210;2023-08-06T10:46:00;4.22;;;1.80;;
68792;SDS011;55778;54.346;10.210;2023-08-06T10:48:34;4.30;;;1.70;;
68792;SDS011;55778;54.346;10.210;2023-08-06T10:51:06;4.63;;;1.67;;
68792;SDS011;55778;54.346;10.210;2023-08-06T10:53:36;3.25;;;1.55;;
68792;SDS011;55778;54.346;10.210;2023-08-06T10:56:11;2.58;;;1.70;;
68792;SDS011;55778;54.346;10.210;2023-08-06T10:58:47;2.25;;;1.50;;
68792;SDS011;55778;54.346;10.210;2023-08-06T11:01:13;2.78;;;1.45;;
68792;SDS011;55778;54.346;10.210;2023-08-06T11:03:40;1.85;;;1.20;;
68792;SDS011;55778;54.346;10.210;2023-08-06T11:06:06;3.83;;;1.50;;
68792;SDS011;55778;54.346;10.210;2023-08-06T11:08:37;3.35;;;1.77;;
68792;SDS011;55778;54.346;10.210;2023-08-06T11:11:13;3.15;;;1.60;;
68792;SDS011;55778;54.346;10.210;2023-08-06T11:13:40;2.92;;;1.50;;
68792;SDS011;55778;54.346;10.210;2023-08-06T11:16:06;2.70;;;1.50;;
68792;SDS011;55778;54.346;10.210;2023-08-06T11:18:34;2.55;;;1.48;;
68792;SDS011;55778;54.346;10.210;2023-08-06T11:21:00;3.75;;;1.70;;
68792;SDS011;55778;54.346;10.210;2023-08-06T11:23:26;5.45;;;1.60;;
68792;SDS011;55778;54.346;10.210;2023-08-06T11:25:53;2.53;;;1.42;;
68792;SDS011;55778;54.346;10.210;2023-08-06T11:28:19;3.90;;;1.80;;
68792;SDS011;55778;54.346;10.210;2023-08-06T11:30:46;2.13;;;1.30;;
68792;SDS011;55778;54.346;10.210;2023-08-06T11:33:12;5.57;;;1.60;;
68792;SDS011;55778;54.346;10.210;2023-08-06T11:35:37;4.78;;;1.70;;
68792;SDS011;55778;54.346;10.210;2023-08-06T11:38:03;3.55;;;1.48;;
68792;SDS011;55778;54.346;10.210;2023-08-06T11:40:29;2.53;;;1.55;;
68792;SDS011;55778;54.346;10.210;2023-08-06T11:42:54;4.38;;;1.42;;
68792;SDS011;55778;54.346;10.210;2023-08-06T11:45:24;2.10;;;1.60;;
68792;SDS011;55778;54.346;10.210;2023-08-06T11:50:24;2.53;;;1.50;;
68792;SDS011;55778;54.346;10.210;2023-08-06T11:52:57;4.15;;;1.55;;
68792;SDS011;55778;54.346;10.210;2023-08-06T11:55:25;3.78;;;1.58;;
68792;SDS011;55778;54.346;10.210;2023-08-06T11:57:51;3.95;;;1.70;;
68792;SDS011;55778;54.346;10.210;2023-08-06T12:00:17;3.40;;;1.40;;
68792;SDS011;55778;54.346;10.210;2023-08-06T12:02:45;4.00;;;1.67;;
68792;SDS011;55778;54.346;10.210;2023-08-06T12:05:11;2.97;;;1.50;;
68792;SDS011;55778;54.346;10.210;2023-08-06T12:07:40;3.33;;;1.55;;
68792;SDS011;55778;54.346;10.210;2023-08-06T12:10:07;2.25;;;1.40;;
68792;SDS011;55778;54.346;10.210;2023-08-06T12:12:36;3.97;;;1.60;;
68792;SDS011;55778;54.346;10.210;2023-08-06T12:15:02;4.53;;;1.55;;
68792;SDS011;55778;54.346;10.210;2023-08-06T12:17:28;4.07;;;1.52;;
68792;SDS011;55778;54.346;10.210;2023-08-06T12:19:54;2.42;;;1.60;;
68792;SDS011;55778;54.346;10.210;2023-08-06T12:22:19;3.70;;;1.83;;
68792;SDS011;55778;54.346;10.210;2023-08-06T12:24:45;4.60;;;1.90;;
68792;SDS011;55778;54.346;10.210;2023-08-06T12:27:12;3.58;;;1.65;;
68792;SDS011;55778;54.346;10.210;2023-08-06T12:29:41;2.80;;;1.60;;
68792;SDS011;55778;54.346;10.210;2023-08-06T12:32:11;2.47;;;1.42;;
68792;SDS011;55778;54.346;10.210;2023-08-06T12:34:40;4.20;;;1.60;;
68792;SDS011;55778;54.346;10.210;2023-08-06T12:37:06;4.03;;;1.38;;
68792;SDS011;55778;54.346;10.210;2023-08-06T12:39:32;4.65;;;1.70;;
68792;SDS011;55778;54.346;10.210;2023-08-06T12:41:59;2.53;;;1.60;;
68792;SDS011;55778;54.346;10.210;2023-08-06T12:44:26;4.20;;;1.60;;
68792;SDS011;55778;54.346;10.210;2023-08-06T12:46:51;4.15;;;1.60;;
68792;SDS011;55778;54.346;10.210;2023-08-06T12:49:17;2.67;;;1.50;;
68792;SDS011;55778;54.346;10.210;2023-08-06T12:51:43;5.45;;;1.95;;
68792;SDS011;55778;54.346;10.210;2023-08-06T12:54:08;3.25;;;1.60;;
68792;SDS011;55778;54.346;10.210;2023-08-06T12:56:34;4.00;;;1.73;;
68792;SDS011;55778;54.346;10.210;2023-08-06T12:58:59;3.42;;;1.50;;
68792;SDS011;55778;54.346;10.210;2023-08-06T13:01:25;2.80;;;1.63;;
68792;SDS011;55778;54.346;10.210;2023-08-06T13:03:50;2.60;;;1.40;;
68792;SDS011;55778;54.346;10.210;2023-08-06T13:06:16;4.57;;;1.48;;
68792;SDS011;55778;54.346;10.210;2023-08-06T13:08:41;3.53;;;1.40;;
68792;SDS011;55778;54.346;10.210;2023-08-06T13:11:06;2.65;;;1.55;;
68792;SDS011;55778;54.346;10.210;2023-08-06T13:13:32;3.05;;;1.30;;
68792;SDS011;55778;54.346;10.210;2023-08-06T13:15:57;3.65;;;1.70;;
68792;SDS011;55778;54.346;10.210;2023-08-06T13:18:22;3.78;;;1.60;;
68792;SDS011;55778;54.346;10.210;2023-08-06T13:20:48;3.03;;;1.73;;
68792;SDS011;55778;54.346;10.210;2023-08-06T13:23:17;2.83;;;1.50;;
68792;SDS011;55778;54.346;10.210;2023-08-06T13:25:42;2.92;;;1.70;;
68792;SDS011;55778;54.346;10.210;2023-08-06T13:28:08;3.10;;;1.52;;
68792;SDS011;55778;54.346;10.210;2023-08-06T13:30:33;3.50;;;1.75;;
68792;SDS011;55778;54.346;10.210;2023-08-06T13:33:00;3.55;;;1.90;;
68792;SDS011;55778;54.346;10.210;2023-08-06T13:35:26;4.82;;;1.48;;
68792;SDS011;55778;54.346;10.210;2023-08-06T13:37:52;2.38;;;1.40;;
68792;SDS011;55778;54.346;10.210;2023-08-06T13:40:19;4.25;;;1.70;;
68792;SDS011;55778;54.346;10.210;2023-08-06T13:42:44;5.10;;;1.90;;
68792;SDS011;55778;54.346;10.210;2023-08-06T13:45:10;3.15;;;1.40;;
68792;SDS011;55778;54.346;10.210;2023-08-06T13:47:35;3.42;;;1.48;;
68792;SDS011;55778;54.346;10.210;2023-08-06T13:50:00;3.15;;;1.75;;
68792;SDS011;55778;54.346;10.210;2023-08-06T13:52:26;4.13;;;1.63;;
68792;SDS011;55778;54.346;10.210;2023-08-06T13:54:52;4.43;;;1.65;;
68792;SDS011;55778;54.346;10.210;2023-08-06T13:57:17;3.42;;;1.60;;
68792;SDS011;55778;54.346;10.210;2023-08-06T13:59:43;5.28;;;1.50;;
68792;SDS011;55778;54.346;10.210;2023-08-06T14:02:09;3.40;;;1.63;;
68792;SDS011;55778;54.346;10.210;2023-08-06T14:04:35;2.55;;;1.52;;
68792;SDS011;55778;54.346;10.210;2023-08-06T14:07:00;4.43;;;1.73;;
68792;SDS011;55778;54.346;10.210;2023-08-06T14:09:25;2.95;;;1.60;;
68792;SDS011;55778;54.346;10.210;2023-08-06T14:11:51;2.88;;;1.52;;
68792;SDS011;55778;54.346;10.210;2023-08-06T14:14:16;4.18;;;1.70;;
68792;SDS011;55778;54.346;10.210;2023-08-06T14:16:42;2.75;;;1.58;;
68792;SDS011;55778;54.346;10.210;2023-08-06T14:19:07;3.67;;;1.50;;
68792;SDS011;55778;54.346;10.210;2023-08-06T14:21:33;2.67;;;1.50;;
68792;SDS011;55778;54.346;10.210;2023-08-06T14:23:58;2.60;;;1.52;;
68792;SDS011;55778;54.346;10.210;2023-08-06T14:26:23;2.97;;;1.70;;
68792;SDS011;55778;54.346;10.210;2023-08-06T14:28:49;3.03;;;1.30;;
68792;SDS011;55778;54.346;10.210;2023-08-06T14:31:17;2.28;;;1.30;;
68792;SDS011;55778;54.346;10.210;2023-08-06T14:33:42;2.75;;;1.50;;
68792;SDS011;55778;54.346;10.210;2023-08-06T14:36:08;3.40;;;1.75;;
68792;SDS011;55778;54.346;10.210;2023-08-06T14:38:33;3.30;;;1.35;;
68792;SDS011;55778;54.346;10.210;2023-08-06T14:40:58;2.95;;;1.63;;
68792;SDS011;55778;54.346;10.210;2023-08-06T14:43:24;5.85;;;1.50;;
68792;SDS011;55778;54.346;10.210;2023-08-06T14:45:49;2.83;;;1.52;;